Data for 03/06/2014

Time Sea-Level Adjusted Pressure Absolute Pressure Temperature Relative Humidity Dew Point   
(mb) (inHg) (mb) (inHg) (C) (F) (%) (C) (F)
00:05 1010 29.83 840 24.81 8 46.4 49 -2.2 28.1
00:10 1010 29.83 840 24.81 7.7 45.9 49 -2.2 28
00:15 1010 29.83 840 24.81 7.5 45.6 50 -2.1 28.2
00:20 1010 29.83 839 24.78 7.3 45.1 50 -2.3 27.8
00:25 1010 29.83 839 24.78 7.5 45.4 49 -2.7 27.2
00:30 1010 29.83 839 24.78 7.5 45.5 50 -2.3 27.9
00:35 1010 29.83 839 24.78 7.2 44.9 51 -2.3 27.8
00:40 1010 29.83 839 24.78 6.9 44.5 51 -2.4 27.6
00:45 1010 29.83 839 24.78 6.9 44.5 52 -2.4 27.8
00:50 1010 29.83 839 24.78 7.1 44.8 51 -2.4 27.6
00:55 1010 29.83 839 24.78 7.2 44.9 51 -2.3 27.8
01:00 1010 29.83 839 24.78 7.3 45.1 47 -3.3 26.1
01:05 1010 29.83 839 24.78 8.2 46.8 44 -3.4 25.9
01:10 1010 29.83 839 24.78 8.8 47.8 44 -2.9 26.7
01:15 1010 29.83 839 24.78 8.6 47.5 45 -2.7 27.1
01:20 1010 29.83 839 24.78 8.6 47.4 44 -3 26.6
01:25 1010 29.83 839 24.78 8.7 47.6 44 -2.9 26.8
01:30 1010 29.83 839 24.78 8.8 47.8 44 -2.9 26.8
01:35 1010 29.83 839 24.78 8.7 47.7 45 -2.7 27.2
01:40 1010 29.83 839 24.78 8.6 47.4 45 -2.7 27.1
01:45 1010 29.83 839 24.78 8.6 47.5 44 -2.8 26.9
01:50 1010 29.83 839 24.78 8.7 47.7 44 -2.8 26.9
01:55 1010 29.83 839 24.78 8.8 47.8 43 -3 26.7
02:00 1010 29.83 839 24.78 9 48.2 44 -2.7 27.1
02:05 1010 29.83 839 24.78 8.8 47.9 44 -2.6 27.2
02:10 1010 29.83 839 24.78 8.7 47.6 45 -2.5 27.4
02:15 1010 29.83 839 24.78 8.6 47.5 45 -2.8 27
02:20 1010 29.83 839 24.78 9 48.1 43 -2.9 26.9
02:25 1010 29.83 839 24.78 9.1 48.4 43 -2.7 27.1
02:30 1010 29.83 839 24.78 9.2 48.6 43 -2.8 26.9
02:35 1010 29.83 839 24.78 9.2 48.5 44 -2.3 27.9
02:40 1010 29.83 839 24.78 8.8 47.9 44 -2.6 27.2
02:45 1010 29.83 839 24.78 8.7 47.6 46 -2.2 28.1
02:50 1010 29.83 839 24.78 8.6 47.4 46 -2.4 27.6
02:55 1010 29.83 839 24.78 8.5 47.2 46 -2.4 27.8
03:00 1010 29.83 839 24.78 8.6 47.5 45 -2.6 27.4
03:05 1010 29.83 839 24.78 8.7 47.6 47 -2 28.4
03:10 1010 29.83 839 24.78 8.1 46.6 48 -2.2 28.1
03:15 1010 29.83 839 24.78 7.7 45.9 49 -2.2 28.1
03:20 1009 29.8 839 24.78 7.6 45.6 49 -2.5 27.5
03:25 1010 29.83 839 24.78 7.7 45.9 48 -2.5 27.6
03:30 1010 29.83 839 24.78 8 46.4 46 -2.9 26.8
03:35 1010 29.83 839 24.78 8.3 47 47 -2.4 27.7
03:40 1010 29.83 839 24.78 8.3 47 47 -2.4 27.6
03:45 1009 29.8 839 24.78 8.3 46.9 48 -1.9 28.5
03:50 1009 29.8 838 24.75 7.8 46 49 -2.1 28.2
03:55 1009 29.8 838 24.75 7.9 46.3 50 -1.8 28.7
04:00 1009 29.8 838 24.75 8.1 46.6 49 -1.9 28.6
04:05 1009 29.8 838 24.75 8.2 46.7 50 -1.7 28.9
04:10 1009 29.8 838 24.75 8.3 46.9 49 -1.7 29
04:15 1008 29.77 838 24.75 8.1 46.6 49 -1.8 28.7
04:20 1008 29.77 838 24.75 7.9 46.3 51 -1.6 29.2
04:25 1008 29.77 838 24.75 7.6 45.6 52 -1.5 29.3
04:30 1008 29.77 837 24.72 7.5 45.5 53 -1.4 29.4
04:35 1008 29.77 837 24.72 7.6 45.8 53 -1.3 29.6
04:40 1008 29.77 837 24.72 7.5 45.5 54 -1.3 29.7
04:45 1008 29.77 837 24.72 7.5 45.6 53 -1.3 29.6
04:50 1008 29.77 837 24.72 7.6 45.7 54 -1.1 30
04:55 1008 29.77 837 24.72 7.6 45.6 53 -1.3 29.7
05:00 1008 29.77 837 24.72 7.6 45.7 53 -1.4 29.4
05:05 1008 29.77 837 24.72 8 46.3 52 -1.3 29.6
05:10 1008 29.77 837 24.72 8.2 46.7 52 -1.2 29.9
05:15 1008 29.77 837 24.72 7.9 46.1 54 -0.9 30.4
05:20 1008 29.77 837 24.72 7.7 45.8 54 -1 30.2
05:25 1008 29.77 837 24.72 7.4 45.2 55 -1.1 30.1
05:30 1008 29.77 837 24.72 7.2 45 56 -1 30.2
05:35 1008 29.77 837 24.72 6.9 44.4 59 -0.7 30.8
05:40 1008 29.77 837 24.72 6.5 43.7 58 -1.2 29.8
05:45 1008 29.77 837 24.72 6.4 43.6 59 -1 30.1
05:50 1008 29.77 837 24.72 6.6 43.9 57 -1.2 29.8
05:55 1008 29.77 837 24.72 6.7 44.1 57 -1.1 30
06:00 1008 29.77 837 24.72 6.7 44 58 -1.1 30
06:05 1008 29.77 837 24.72 6.6 43.9 58 -1 30.1
06:10 1008 29.77 837 24.72 6.7 44.1 57 -1.3 29.7
06:15 1008 29.77 837 24.72 7.1 44.7 55 -1.2 29.8
06:20 1007 29.74 837 24.72 7.3 45.1 55 -1.2 29.8
06:25 1007 29.74 837 24.72 7.2 44.9 55 -1.1 30
06:30 1007 29.74 836 24.69 7.2 45 55 -1.2 29.8
06:35 1007 29.74 836 24.69 7 44.6 56 -1.2 29.9
06:40 1007 29.74 836 24.69 6.9 44.4 57 -1 30.1
06:45 1007 29.74 836 24.69 6.7 44.1 57 -1.2 29.8
06:50 1007 29.74 836 24.69 6.7 44.1 57 -1.1 29.9
06:55 1007 29.74 836 24.69 7.2 44.9 54 -1.5 29.3
07:00 1007 29.74 836 24.69 7.8 46.1 50 -1.9 28.6
07:05 1007 29.74 836 24.69 8.4 47.2 51 -1.1 30
07:10 1007 29.74 836 24.69 8.5 47.3 50 -1.4 29.5
07:15 1007 29.74 836 24.69 8.1 46.6 52 -1.2 29.9
07:20 1007 29.74 836 24.69 8.4 47.1 50 -1.5 29.4
07:25 1007 29.74 836 24.69 8.8 47.8 48 -1.5 29.3
07:30 1007 29.74 836 24.69 9.1 48.4 47 -1.5 29.3
07:35 1007 29.74 836 24.69 8.9 48.1 48 -1.3 29.6
07:40 1007 29.74 836 24.69 8.9 48.1 47 -1.7 28.9
07:45 1007 29.74 836 24.69 9.1 48.3 48 -1.4 29.4
07:50 1007 29.74 836 24.69 9 48.2 47 -1.6 29.1
07:55 1007 29.74 836 24.69 9.4 49 43 -2.5 27.4
08:00 1007 29.74 836 24.69 10.1 50.2 44 -1.6 29.1
08:05 1007 29.74 836 24.69 9.8 49.7 44 -1.9 28.6
08:10 1007 29.74 836 24.69 9.7 49.4 46 -1.4 29.4
08:15 1007 29.74 836 24.69 9.4 48.8 46 -1.6 29.2
08:20 1007 29.74 836 24.69 9.3 48.8 46 -1.6 29.1
08:25 1007 29.74 836 24.69 9.3 48.8 46 -1.6 29.1
08:30 1007 29.74 836 24.69 9.4 48.9 46 -1.5 29.2
08:35 1007 29.74 836 24.69 9.1 48.3 47 -1.6 29.1
08:40 1007 29.74 836 24.69 9 48.3 47 -1.7 29
08:45 1007 29.74 836 24.69 9.3 48.7 46 -1.7 28.9
08:50 1007 29.74 836 24.69 9.4 48.9 46 -1.7 29
08:55 1007 29.74 836 24.69 9.5 49 45 -1.8 28.8
09:00 1007 29.74 836 24.69 9.6 49.3 45 -1.7 28.9
09:05 1007 29.74 836 24.69 9.7 49.5 44 -1.9 28.6
09:10 1007 29.74 836 24.69 9.7 49.5 45 -1.7 29
09:15 1007 29.74 836 24.69 9.5 49.2 46 -1.6 29.1
09:20 1007 29.74 836 24.69 9.5 49 45 -1.8 28.8
09:25 1007 29.74 837 24.72 9.5 49.1 45 -1.7 28.9
09:30 1007 29.74 837 24.72 9.5 49.1 45 -1.7 28.9
09:35 1007 29.74 837 24.72 9.2 48.6 48 -1.3 29.7
09:40 1008 29.77 837 24.72 9 48.2 46 -1.9 28.6
09:45 1008 29.77 837 24.72 9.3 48.8 46 -1.6 29.1
09:50 1008 29.77 837 24.72 9.5 49 46 -1.6 29.2
09:55 1008 29.77 837 24.72 9.5 49.1 48 -1 30.2
10:00 1008 29.77 837 24.72 8.4 47.1 55 -0 32
10:05 1008 29.77 837 24.72 7 44.5 61 -0.1 31.9
10:10 1008 29.77 837 24.72 6.1 42.9 68 0.6 33.1
10:15 1008 29.77 838 24.75 5.6 42.1 70 0.6 33.1
10:20 1009 29.8 838 24.75 5.4 41.7 72 0.8 33.5
10:25 1009 29.8 838 24.75 4.9 40.7 75 0.9 33.6
10:30 1009 29.8 839 24.78 4.7 40.5 76 0.9 33.6
10:35 1009 29.8 839 24.78 4.6 40.3 77 1 33.8
10:40 1010 29.83 839 24.78 4.5 40.1 79 1.2 34.2
10:45 1010 29.83 839 24.78 4.2 39.6 82 1.5 34.7
10:50 1010 29.83 839 24.78 3.9 39.1 85 1.6 34.9
10:55 1010 29.83 839 24.78 3.7 38.6 87 1.7 35.1
11:00 1010 29.83 839 24.78 3.4 38.2 88 1.6 34.9
11:05 1010 29.83 839 24.78 3.4 38 89 1.7 35
11:10 1010 29.83 839 24.78 3.4 38.1 89 1.7 35.1
11:15 1010 29.83 839 24.78 3.4 38 89 1.8 35.2
11:20 1010 29.83 839 24.78 3.4 38.2 88 1.7 35
11:25 1010 29.83 839 24.78 3.4 38.1 88 1.6 34.9
11:30 1010 29.83 839 24.78 3.3 37.9 88 1.5 34.8
11:35 1010 29.83 839 24.78 3 37.5 89 1.3 34.4
11:40 1010 29.83 839 24.78 3.1 37.5 89 1.4 34.6
11:45 1010 29.83 839 24.78 3.2 37.7 88 1.4 34.4
11:50 1010 29.83 839 24.78 3.3 37.9 86 1.2 34.1
11:55 1010 29.83 839 24.78 3.3 37.9 85 1 33.8
12:00 1010 29.83 839 24.78 3.4 38 86 1.2 34.2
12:05 1010 29.83 839 24.78 3.9 39 82 1.2 34.1
12:10 1010 29.83 839 24.78 4.1 39.5 82 1.4 34.5
12:15 1010 29.83 839 24.78 4.6 40.4 81 1.7 35.1
12:20 1010 29.83 839 24.78 4.7 40.5 81 1.7 35.1
12:25 1010 29.83 839 24.78 4.9 40.9 80 1.8 35.2
12:30 1010 29.83 839 24.78 5.2 41.4 79 1.9 35.4
12:35 1010 29.83 839 24.78 5.2 41.3 80 1.9 35.5
12:40 1010 29.83 840 24.81 4.9 40.8 82 2 35.6
12:45 1010 29.83 840 24.81 4.3 39.7 85 2 35.7
12:50 1011 29.85 840 24.81 3.3 38 88 1.6 34.9
12:55 1011 29.85 840 24.81 3 37.4 89 1.4 34.5
13:00 1011 29.85 840 24.81 2.8 37.1 89 1.1 34
13:05 1011 29.85 840 24.81 2.8 37 89 1.2 34.1
13:10 1011 29.85 840 24.81 2.7 36.9 89 1.1 34
13:15 1011 29.85 840 24.81 2.7 36.8 91 1.3 34.4
13:20 1011 29.85 840 24.81 2.8 37 90 1.3 34.4
13:25 1011 29.85 840 24.81 2.7 36.8 92 1.5 34.7
13:30 1011 29.85 840 24.81 2.7 36.9 92 1.6 34.8
13:35 1011 29.85 840 24.81 2.8 37 92 1.6 34.9
13:40 1011 29.85 840 24.81 2.8 37 91 1.5 34.7
13:45 1011 29.85 840 24.81 2.5 36.5 90 1 33.8
13:50 1011 29.85 840 24.81 2.2 36 90 0.7 33.3
13:55 1011 29.85 841 24.83 1.9 35.5 90 0.5 32.9
14:00 1011 29.85 841 24.83 1.7 35 91 0.3 32.5
14:05 1011 29.85 841 24.83 1.3 34.3 91 0 32
14:10 1011 29.85 841 24.83 1 33.8 92 -0.2 31.7
14:15 1011 29.85 840 24.81 0.7 33.2 93 -0.3 31.5
14:20 1011 29.85 840 24.81 0.5 33 94 -0.3 31.5
14:25 1011 29.85 840 24.81 0.6 33.1 94 -0.2 31.6
14:30 1011 29.85 840 24.81 0.7 33.2 94 -0.2 31.7
14:35 1011 29.85 840 24.81 0.8 33.4 94 -0.1 31.8
14:40 1011 29.85 840 24.81 0.9 33.6 94 0.1 32.1
14:45 1011 29.85 840 24.81 1.2 34.1 94 0.2 32.4
14:50 1011 29.85 840 24.81 1.3 34.3 93 0.2 32.4
14:55 1011 29.85 840 24.81 1.4 34.5 92 0.2 32.4
15:00 1011 29.85 840 24.81 1.6 34.8 92 0.4 32.7
15:05 1011 29.85 840 24.81 1.8 35.3 91 0.5 32.9
15:10 1011 29.85 840 24.81 2 35.6 89 0.3 32.6
15:15 1011 29.85 840 24.81 2 35.6 89 0.3 32.6
15:20 1011 29.85 840 24.81 2.2 35.9 88 0.3 32.6
15:25 1011 29.85 840 24.81 2.4 36.3 86 0.3 32.5
15:30 1011 29.85 840 24.81 2.5 36.6 85 0.3 32.5
15:35 1011 29.85 840 24.81 2.7 36.9 84 0.3 32.6
15:40 1011 29.85 840 24.81 3 37.4 83 0.4 32.6
15:45 1011 29.85 840 24.81 3.3 38 82 0.5 32.9
15:50 1011 29.85 840 24.81 3.4 38.2 82 0.6 33
15:55 1011 29.85 840 24.81 3.7 38.6 77 0.1 32.1
16:00 1011 29.85 840 24.81 3.9 39 77 0.3 32.5
16:05 1011 29.85 840 24.81 4.2 39.5 75 0.1 32.2
16:10 1011 29.85 840 24.81 4.3 39.7 75 0.2 32.4
16:15 1011 29.85 840 24.81 4.2 39.5 75 0.1 32.1
16:20 1011 29.85 840 24.81 4.2 39.5 72 -0.4 31.3
16:25 1011 29.85 840 24.81 4.3 39.7 72 -0.4 31.3
16:30 1011 29.85 840 24.81 4.5 40.1 72 -0.2 31.7
16:35 1011 29.85 840 24.81 4.8 40.6 69 -0.4 31.3
16:40 1011 29.85 840 24.81 5.1 41.1 68 -0.3 31.5
16:45 1011 29.85 840 24.81 5.2 41.4 67 -0.4 31.3
16:50 1011 29.85 840 24.81 5.2 41.4 65 -0.8 30.5
16:55 1011 29.85 840 24.81 5.1 41.1 66 -0.8 30.5
17:00 1011 29.85 840 24.81 5.2 41.4 64 -1 30.2
17:05 1011 29.85 840 24.81 5.5 41.8 61 -1.4 29.5
17:10 1010 29.83 840 24.81 5.1 41.3 63 -1.2 29.8
17:15 1010 29.83 840 24.81 5.3 41.6 61 -1.5 29.2
17:20 1010 29.83 840 24.81 5.2 41.4 60 -1.9 28.6
17:25 1010 29.83 840 24.81 5.3 41.6 60 -1.8 28.8
17:30 1010 29.83 840 24.81 5.8 42.4 58 -1.7 28.9
17:35 1010 29.83 840 24.81 6.5 43.6 57 -1.5 29.3
17:40 1011 29.85 840 24.81 6.9 44.4 55 -1.5 29.3
17:45 1011 29.85 840 24.81 6.5 43.7 55 -1.8 28.7
17:50 1011 29.85 840 24.81 6.2 43.1 56 -2 28.4
17:55 1011 29.85 840 24.81 6 42.7 59 -1.5 29.4
18:00 1011 29.85 840 24.81 5.6 42.1 61 -1.3 29.6
18:05 1011 29.85 840 24.81 5.4 41.7 61 -1.6 29.1
18:10 1011 29.85 840 24.81 5.4 41.8 61 -1.5 29.3
18:15 1011 29.85 840 24.81 5.3 41.5 63 -1.3 29.7
18:20 1011 29.85 840 24.81 5.2 41.4 62 -1.5 29.3
18:25 1011 29.85 840 24.81 5.3 41.5 61 -1.6 29.1
18:30 1011 29.85 840 24.81 5.2 41.3 63 -1.3 29.6
18:35 1011 29.85 840 24.81 5.1 41.1 63 -1.3 29.7
18:40 1011 29.85 841 24.83 5 41 65 -0.9 30.3
18:45 1011 29.85 841 24.83 5 41 66 -0.8 30.5
18:50 1011 29.85 841 24.83 4.9 40.8 67 -0.7 30.8
18:55 1011 29.85 841 24.83 4.9 40.9 67 -0.6 30.9
19:00 1011 29.85 841 24.83 5 41.1 68 -0.5 31.2
19:05 1011 29.85 841 24.83 4.9 40.9 69 -0.3 31.4
19:10 1011 29.85 841 24.83 4.4 39.9 71 -0.4 31.2
19:15 1011 29.85 841 24.83 3.9 39 75 -0.1 31.8
19:20 1011 29.85 841 24.83 3.7 38.7 77 0 32
19:25 1011 29.85 841 24.83 3.4 38.2 77 -0.2 31.7
19:30 1012 29.88 841 24.83 3.4 38.1 77 -0.3 31.4
19:35 1012 29.88 841 24.83 3.3 37.9 77 -0.4 31.3
19:40 1012 29.88 841 24.83 3.2 37.7 77 -0.4 31.2
19:45 1012 29.88 841 24.83 3.2 37.7 76 -0.6 31
19:50 1012 29.88 841 24.83 3.2 37.8 76 -0.7 30.8
19:55 1012 29.88 841 24.83 3 37.5 77 -0.5 31
20:00 1012 29.88 841 24.83 2.8 37 77 -0.9 30.4
20:05 1012 29.88 841 24.83 2.9 37.2 77 -0.7 30.7
20:10 1012 29.88 841 24.83 2.9 37.2 76 -0.9 30.5
20:15 1012 29.88 841 24.83 2.9 37.1 77 -0.8 30.6
20:20 1012 29.88 841 24.83 2.9 37.2 78 -0.6 30.9
20:25 1012 29.88 841 24.83 2.9 37.2 78 -0.6 31
20:30 1012 29.88 841 24.83 3.1 37.5 77 -0.5 31
20:35 1012 29.88 841 24.83 3.1 37.5 78 -0.5 31.1
20:40 1012 29.88 841 24.83 3 37.4 79 -0.3 31.5
20:45 1012 29.88 841 24.83 2.6 36.6 81 -0.4 31.3
20:50 1012 29.88 842 24.86 2.3 36.1 83 -0.4 31.4
20:55 1012 29.88 841 24.83 2.3 36.2 82 -0.4 31.3
21:00 1012 29.88 842 24.86 2.5 36.5 81 -0.4 31.3
21:05 1012 29.88 842 24.86 2.5 36.6 82 -0.2 31.7
21:10 1012 29.88 842 24.86 2.4 36.2 83 -0.3 31.5
21:15 1012 29.88 842 24.86 2.3 36.1 83 -0.3 31.4
21:20 1012 29.88 842 24.86 2.2 36 83 -0.4 31.2
21:25 1012 29.88 842 24.86 2.1 35.8 83 -0.4 31.3
21:30 1012 29.88 842 24.86 2.1 35.8 83 -0.5 31.1
21:35 1013 29.91 842 24.86 2.2 36 82 -0.5 31.2
21:40 1013 29.91 842 24.86 2.3 36.2 82 -0.5 31.2
21:45 1013 29.91 842 24.86 2.3 36.2 83 -0.3 31.4
21:50 1013 29.91 842 24.86 2.3 36.1 83 -0.4 31.3
21:55 1013 29.91 842 24.86 2.4 36.3 82 -0.4 31.2
22:00 1013 29.91 842 24.86 2.6 36.6 82 -0.2 31.6
22:05 1013 29.91 842 24.86 2.6 36.6 82 -0.2 31.7
22:10 1013 29.91 842 24.86 2.6 36.7 82 -0.2 31.7
22:15 1013 29.91 842 24.86 2.8 37 81 -0.3 31.5
22:20 1013 29.91 842 24.86 2.9 37.3 81 -0 31.9
22:25 1013 29.91 842 24.86 3 37.4 81 0.1 32.1
22:30 1013 29.91 842 24.86 3.1 37.6 79 -0.1 31.8
22:35 1013 29.91 842 24.86 3.2 37.8 78 -0.3 31.5
22:40 1013 29.91 842 24.86 3.3 38 78 -0.2 31.7
22:45 1013 29.91 842 24.86 3.2 37.8 81 0.2 32.3
22:50 1013 29.91 842 24.86 2.7 36.9 82 -0.1 31.9
22:55 1013 29.91 843 24.89 2.6 36.8 81 -0.3 31.5
23:00 1013 29.91 843 24.89 2.8 37 81 -0.2 31.6
23:05 1014 29.94 843 24.89 2.7 36.9 82 0 32
23:10 1013 29.91 843 24.89 2.3 36.1 85 0.1 32.1
23:15 1014 29.94 843 24.89 1.8 35.2 88 -0.1 31.9
23:20 1014 29.94 843 24.89 1.7 35.1 87 -0.2 31.6
23:25 1014 29.94 843 24.89 2 35.6 84 -0.4 31.3
23:30 1014 29.94 843 24.89 2.4 36.3 81 -0.5 31.1
23:35 1014 29.94 843 24.89 2.7 36.9 79 -0.5 31.1
23:40 1014 29.94 843 24.89 2.6 36.8 80 -0.4 31.3
23:45 1014 29.94 843 24.89 2.4 36.4 80 -0.7 30.8
23:50 1014 29.94 843 24.89 2.2 36 83 -0.4 31.3
23:55 1014 29.94 843 24.89 1.7 35.1 86 -0.3 31.4
24:00 1014 29.94 843 24.89 1.6 34.9 87 -0.3 31.4